Time;durP1;ratioP1;P1;durP2;ratioP2;P2;SDS_P1;SDS_P2;PMS_P1;PMS_P2;Temp;Humidity;BMP_temperature;BMP_pressure;BME280_temperature;BME280_humidity;BME280_pressure;Samples;Min_cycle;Max_cycle;Signal;HPM_P1;HPM_P2
2022/05/07 08:26:15;;;;;;;30.88;16.58;;;18.50;99.90;;;;;;5090889;27;20563;-80
2022/05/07 08:28:41;;;;;;;29.20;15.93;;;15.90;99.90;;;;;;5090899;28;20199;-80
2022/05/07 08:31:07;;;;;;;33.20;15.73;;;16.00;99.90;;;;;;5089507;28;20620;-80
2022/05/07 08:33:34;;;;;;;35.50;16.75;;;16.00;99.90;;;;;;5090646;28;20225;-80
2022/05/07 08:36:00;;;;;;;31.65;16.67;;;16.10;99.90;;;;;;5090734;28;20221;-80
2022/05/07 08:38:26;;;;;;;30.95;16.63;;;16.20;99.90;;;;;;5090697;28;20174;-80
2022/05/07 08:40:52;;;;;;;28.85;15.45;;;16.30;99.90;;;;;;5090669;28;20175;-80
2022/05/07 08:43:19;;;;;;;29.40;15.57;;;16.40;99.90;;;;;;5090580;28;20164;-80
2022/05/07 08:45:44;;;;;;;34.08;16.98;;;16.40;99.90;;;;;;5090360;28;20199;-80
2022/05/07 08:48:10;;;;;;;29.80;15.45;;;16.50;99.90;;;;;;5090426;28;20178;-80
2022/05/07 08:50:41;;;;;;;26.33;14.82;;;16.70;99.90;;;;;;5090617;28;20175;-80
2022/05/07 08:53:07;;;;;;;27.85;15.48;;;16.70;99.90;;;;;;5090507;28;20699;-80
2022/05/07 08:55:33;;;;;;;23.63;14.25;;;16.70;99.90;;;;;;5090353;28;20256;-80
2022/05/07 08:57:59;;;;;;;28.52;15.80;;;16.80;99.90;;;;;;5090070;28;20306;-80
2022/05/07 09:00:26;;;;;;;24.30;16.02;;;16.80;99.90;;;;;;5088734;28;20191;-80
2022/05/07 09:02:57;;;;;;;30.20;16.90;;;16.80;99.90;;;;;;5090206;28;20180;-80
2022/05/07 09:05:31;;;;;;;32.13;17.10;;;16.80;99.90;;;;;;5090027;28;20202;-79
2022/05/07 09:07:58;;;;;;;33.20;16.88;;;16.80;99.90;;;;;;5090142;28;20525;-79
2022/05/07 09:10:29;;;;;;;28.42;17.27;;;16.80;99.90;;;;;;5090112;28;20217;-79
2022/05/07 09:13:11;;;;;;;33.13;19.35;;;16.80;99.90;;;;;;5089997;28;20171;-80
2022/05/07 09:15:48;;;;;;;33.03;18.13;;;16.80;99.90;;;;;;5090015;28;20182;-80
2022/05/07 09:18:16;;;;;;;32.05;17.27;;;16.80;99.90;;;;;;5088846;28;20186;-80
2022/05/07 09:20:41;;;;;;;27.98;18.55;;;16.90;99.90;;;;;;5090013;28;20167;-79
2022/05/07 09:23:10;;;;;;;32.53;20.23;;;16.90;99.90;;;;;;5089818;28;20184;-79
2022/05/07 09:25:45;;;;;;;34.17;20.38;;;17.00;99.90;;;;;;5089788;28;20241;-79
2022/05/07 09:28:10;;;;;;;38.97;20.00;;;17.00;99.90;;;;;;5088582;28;20171;-79
2022/05/07 09:30:36;;;;;;;38.55;19.55;;;17.10;99.90;;;;;;5090004;28;20223;-80
2022/05/07 09:33:02;;;;;;;31.38;19.27;;;17.10;99.90;;;;;;5089675;28;20163;-79
2022/05/07 09:38:14;;;;;;;30.90;18.30;;;17.30;99.90;;;;;;5076187;28;20582;-79
2022/05/07 09:40:42;;;;;;;27.17;18.02;;;17.40;99.90;;;;;;5076033;28;20168;-79
2022/05/07 09:43:12;;;;;;;33.80;18.10;;;17.50;99.90;;;;;;5076026;28;20267;-79
2022/05/07 09:45:39;;;;;;;26.98;16.40;;;17.70;99.90;;;;;;5074582;28;20218;-79
2022/05/07 09:48:06;;;;;;;27.98;17.42;;;17.90;99.90;;;;;;5076008;28;20180;-79
2022/05/07 09:58:33;;;;;;;26.52;16.20;;;18.40;99.90;;;;;;5076032;28;20182;-80
2022/05/07 10:01:12;;;;;;;27.10;16.63;;;18.50;99.90;;;;;;5075654;28;20171;-80
2022/05/07 10:03:45;;;;;;;29.27;17.20;;;18.50;99.90;;;;;;5074337;28;20720;-80
2022/05/07 10:06:27;;;;;;;29.17;17.25;;;18.70;99.90;;;;;;5075526;28;20616;-80
2022/05/07 10:09:17;;;;;;;27.13;16.33;;;18.90;99.90;;;;;;5075604;28;20171;-79
2022/05/07 10:11:44;;;;;;;26.02;17.88;;;19.00;99.90;;;;;;5075496;28;20160;-80
2022/05/07 10:14:12;;;;;;;26.23;17.67;;;19.10;99.90;;;;;;5075533;28;20574;-79
2022/05/07 10:16:38;;;;;;;25.00;16.92;;;19.10;99.90;;;;;;5075410;28;20583;-79
2022/05/07 10:19:10;;;;;;;25.67;16.27;;;19.00;99.90;;;;;;5075346;28;20207;-79
2022/05/07 10:21:36;;;;;;;29.80;15.27;;;18.80;99.90;;;;;;5075165;28;20168;-80
2022/05/07 10:24:02;;;;;;;24.30;15.48;;;18.70;99.90;;;;;;5074941;28;20234;-79
2022/05/07 10:26:41;;;;;;;24.83;15.85;;;18.60;99.90;;;;;;5075156;28;20242;-79
2022/05/07 10:29:20;;;;;;;21.67;14.90;;;18.50;99.90;;;;;;5075122;28;20251;-79
2022/05/07 10:31:45;;;;;;;24.73;15.73;;;18.40;99.90;;;;;;5075106;28;20166;-80
2022/05/07 10:34:23;;;;;;;25.58;15.23;;;18.40;99.90;;;;;;5075005;28;20175;-79
2022/05/07 10:37:06;;;;;;;21.60;15.70;;;18.50;99.90;;;;;;5073728;28;20199;-80
2022/05/07 10:39:32;;;;;;;24.02;14.95;;;18.50;99.90;;;;;;5073682;28;20226;-79
2022/05/07 10:42:01;;;;;;;24.42;16.80;;;18.50;99.90;;;;;;5074885;28;20183;-79
2022/05/07 10:44:31;;;;;;;22.55;15.50;;;18.40;99.90;;;;;;5074701;28;20200;-79
2022/05/07 10:47:15;;;;;;;23.15;15.95;;;18.50;99.90;;;;;;5074733;28;20172;-80
2022/05/07 10:49:51;;;;;;;24.52;14.35;;;18.60;99.90;;;;;;5072911;28;20212;-79
2022/05/07 10:52:27;;;;;;;20.73;15.07;;;18.80;99.90;;;;;;5074679;28;20198;-79
2022/05/07 10:55:13;;;;;;;24.02;15.38;;;18.90;99.90;;;;;;5074621;28;20194;-79
2022/05/07 10:57:45;;;;;;;22.08;15.88;;;19.10;99.90;;;;;;5073320;28;20258;-80
2022/05/07 11:00:19;;;;;;;21.95;15.70;;;19.20;99.90;;;;;;5074516;28;20175;-79
2022/05/07 11:02:47;;;;;;;27.40;14.85;;;19.40;99.90;;;;;;5074531;28;20164;-80
2022/05/07 11:05:13;;;;;;;23.17;16.55;;;19.60;99.90;;;;;;5073096;28;20195;-80
2022/05/07 11:07:40;;;;;;;28.92;15.50;;;19.60;99.90;;;;;;5074339;28;20168;-80
2022/05/07 11:10:06;;;;;;;24.92;14.85;;;19.70;99.90;;;;;;5073109;28;20187;-80
2022/05/07 11:12:32;;;;;;;20.38;14.65;;;19.90;99.90;;;;;;5074221;28;20167;-80
2022/05/07 11:14:58;;;;;;;24.20;15.50;;;20.00;99.90;;;;;;5074192;28;20174;-80
2022/05/07 11:17:32;;;;;;;20.13;13.95;;;20.10;99.90;;;;;;5074114;28;20164;-80
2022/05/07 11:19:58;;;;;;;27.50;16.35;;;20.00;99.90;;;;;;5073047;28;20534;-80
2022/05/07 11:22:29;;;;;;;25.95;16.40;;;19.80;99.90;;;;;;5072699;28;20172;-80
2022/05/07 11:24:57;;;;;;;22.52;16.60;;;19.50;99.90;;;;;;5073803;28;20247;-80
2022/05/07 11:27:26;;;;;;;25.52;16.10;;;19.30;99.90;;;;;;5073946;28;20171;-80
2022/05/07 11:29:53;;;;;;;24.67;15.77;;;19.30;99.90;;;;;;5073905;28;20621;-80
2022/05/07 11:32:18;;;;;;;21.10;15.55;;;19.20;99.90;;;;;;5073795;28;20218;-80
2022/05/07 11:34:44;;;;;;;31.02;18.42;;;19.20;99.90;;;;;;5073788;28;20167;-80
2022/05/07 11:37:21;;;;;;;24.63;17.25;;;19.30;99.90;;;;;;5073754;28;20529;-80
2022/05/07 11:39:58;;;;;;;29.17;16.55;;;19.40;99.90;;;;;;5073765;28;20185;-80
2022/05/07 11:45:43;;;;;;;20.52;14.75;;;19.80;99.90;;;;;;5073510;28;20608;-80
2022/05/07 11:48:14;;;;;;;26.52;15.70;;;20.10;99.90;;;;;;5073644;28;20159;-80
2022/05/07 11:50:50;;;;;;;27.33;16.08;;;20.50;99.90;;;;;;5072290;28;20254;-80
2022/05/07 11:53:17;;;;;;;24.88;15.85;;;20.70;99.90;;;;;;5073551;28;20250;-80
2022/05/07 11:55:43;;;;;;;24.08;14.25;;;20.90;99.90;;;;;;5073569;28;20173;-80
2022/05/07 11:58:23;;;;;;;23.10;14.63;;;21.00;99.90;;;;;;5073374;28;20178;-80
2022/05/07 12:00:51;;;;;;;24.02;14.82;;;21.10;99.90;;;;;;5073174;28;20163;-80
2022/05/07 12:03:18;;;;;;;19.95;13.38;;;21.10;99.90;;;;;;5073423;28;20159;-80
2022/05/07 12:06:05;;;;;;;22.85;15.15;;;20.90;99.90;;;;;;5073230;28;20188;-80
2022/05/07 12:08:32;;;;;;;23.45;15.15;;;20.70;99.90;;;;;;5073335;28;20633;-80
2022/05/07 12:10:58;;;;;;;28.42;15.68;;;20.60;99.90;;;;;;5071967;28;20184;-80
2022/05/07 12:13:25;;;;;;;24.67;14.45;;;20.50;99.90;;;;;;5073306;28;20174;-80
2022/05/07 12:18:37;;;;;;;21.95;14.48;;;20.60;99.90;;;;;;5073616;28;20583;-80
2022/05/07 12:21:03;;;;;;;20.90;13.93;;;20.70;99.90;;;;;;5073293;28;20578;-80
2022/05/07 12:31:42;;;;;;;18.13;12.65;;;20.70;99.90;;;;;;5073257;28;20170;-81
2022/05/07 12:34:07;;;;;;;23.15;13.93;;;20.60;99.90;;;;;;5073099;28;20168;-80
2022/05/07 12:36:33;;;;;;;21.10;14.50;;;20.50;99.90;;;;;;5073045;28;20290;-80
2022/05/07 12:38:59;;;;;;;17.20;13.38;;;20.20;99.90;;;;;;5071700;28;20523;-80
2022/05/07 12:41:31;;;;;;;23.75;14.68;;;19.90;99.90;;;;;;5073049;28;20252;-81
2022/05/07 12:43:58;;;;;;;20.70;14.65;;;19.70;99.90;;;;;;5072925;28;20192;-80
2022/05/07 12:46:24;;;;;;;25.25;15.48;;;19.60;99.90;;;;;;5073047;28;20160;-80
2022/05/07 12:48:50;;;;;;;21.95;14.93;;;19.70;99.90;;;;;;5072966;28;20182;-80
2022/05/07 12:51:16;;;;;;;19.10;13.73;;;19.80;99.90;;;;;;5072886;28;20160;-80
2022/05/07 12:53:42;;;;;;;23.63;13.77;;;19.90;99.90;;;;;;5072915;28;20660;-80
2022/05/07 12:56:08;;;;;;;19.05;13.45;;;20.10;99.90;;;;;;5071659;28;20207;-80
2022/05/07 12:58:34;;;;;;;20.83;13.45;;;20.20;99.90;;;;;;5071602;28;20171;-80
2022/05/07 13:01:00;;;;;;;20.90;12.15;;;20.50;99.90;;;;;;5072908;28;20171;-80
2022/05/07 13:03:26;;;;;;;14.18;12.10;;;20.70;99.90;;;;;;5072801;28;20171;-80
2022/05/07 13:05:51;;;;;;;16.63;12.70;;;21.00;99.90;;;;;;5072819;28;20548;-80
2022/05/07 13:08:17;;;;;;;20.95;12.73;;;21.20;99.90;;;;;;5072773;28;20183;-81
2022/05/07 13:10:43;;;;;;;16.90;12.93;;;21.20;99.90;;;;;;5072802;28;20572;-80
2022/05/07 13:13:10;;;;;;;17.92;13.57;;;21.20;99.90;;;;;;5076512;28;20164;-80
2022/05/07 13:15:36;;;;;;;19.10;13.13;;;21.10;99.90;;;;;;5075215;28;20486;-80
2022/05/07 13:18:01;;;;;;;15.32;12.60;;;21.20;99.90;;;;;;5076534;28;20172;-80
2022/05/07 13:20:28;;;;;;;16.10;12.38;;;21.50;99.90;;;;;;5076342;28;20176;-80
2022/05/07 13:22:54;;;;;;;16.25;11.85;;;21.80;99.90;;;;;;5076392;28;20215;-81
2022/05/07 13:25:22;;;;;;;15.57;11.50;;;21.90;99.90;;;;;;5074718;28;20223;-80
2022/05/07 13:27:48;;;;;;;20.38;13.40;;;22.00;99.90;;;;;;5076276;28;20164;-80
2022/05/07 13:30:15;;;;;;;20.02;12.57;;;22.00;99.90;;;;;;5076180;28;20211;-80
2022/05/07 13:32:41;;;;;;;18.80;13.43;;;22.00;99.90;;;;;;5076145;28;20628;-80
2022/05/07 13:35:07;;;;;;;19.35;12.30;;;21.90;99.90;;;;;;5074887;28;20205;-80
2022/05/07 13:37:33;;;;;;;19.77;12.38;;;22.00;99.90;;;;;;5076046;28;20239;-80
2022/05/07 13:39:59;;;;;;;15.38;10.68;;;21.90;99.90;;;;;;5076028;28;20199;-80
2022/05/07 13:42:25;;;;;;;17.70;11.70;;;22.00;99.90;;;;;;5074774;28;20172;-80
2022/05/07 13:44:51;;;;;;;12.55;10.85;;;22.00;99.90;;;;;;5075849;28;20191;-80
2022/05/07 13:47:17;;;;;;;14.60;11.45;;;21.90;99.90;;;;;;5075968;28;20243;-80
2022/05/07 13:49:42;;;;;;;14.43;11.45;;;22.00;99.90;;;;;;5075937;28;20298;-80
2022/05/07 13:52:08;;;;;;;16.85;10.50;;;22.20;99.90;;;;;;5075964;28;20195;-80
2022/05/07 13:54:34;;;;;;;14.23;10.88;;;22.30;99.90;;;;;;5075909;28;20167;-82
2022/05/07 13:57:00;;;;;;;13.32;10.32;;;22.40;99.90;;;;;;5075999;28;20176;-81
2022/05/07 13:59:28;;;;;;;13.07;10.10;;;22.50;99.90;;;;;;5075871;28;20271;-81
2022/05/07 14:01:54;;;;;;;11.10;9.30;;;22.80;99.90;;;;;;5076144;28;20164;-81
2022/05/07 14:04:19;;;;;;;14.90;10.25;;;23.20;99.90;;;;;;5075637;28;20286;-81
2022/05/07 14:06:45;;;;;;;12.48;8.98;;;23.40;99.90;;;;;;5075546;28;20286;-81
2022/05/07 14:09:12;;;;;;;15.48;10.23;;;23.50;99.90;;;;;;5075299;28;20191;-80
2022/05/07 14:11:38;;;;;;;12.93;10.15;;;23.50;99.90;;;;;;5075258;28;20170;-82
2022/05/07 14:14:04;;;;;;;16.80;10.68;;;23.60;99.90;;;;;;5075471;28;20190;-81
2022/05/07 14:16:30;;;;;;;11.95;10.65;;;23.80;99.90;;;;;;5075346;28;20629;-81
2022/05/07 14:18:56;;;;;;;12.75;10.15;;;23.80;99.90;;;;;;5075274;28;20168;-81
2022/05/07 14:21:23;;;;;;;16.25;9.25;;;23.80;99.90;;;;;;5075193;28;20250;-82
2022/05/07 14:23:48;;;;;;;20.80;10.80;;;24.10;99.90;;;;;;5075309;28;20509;-81
2022/05/07 14:26:14;;;;;;;12.57;9.38;;;24.50;99.90;;;;;;5073824;28;20204;-76
2022/05/07 14:28:40;;;;;;;12.77;10.65;;;24.50;99.90;;;;;;5075093;28;20648;-76
2022/05/07 14:31:05;;;;;;;17.48;10.52;;;24.30;99.90;;;;;;5075154;28;20221;-76
2022/05/07 14:33:31;;;;;;;15.25;11.30;;;24.40;99.90;;;;;;5074955;28;20182;-76
2022/05/07 14:35:57;;;;;;;15.45;12.30;;;24.30;99.90;;;;;;5075018;28;20178;-76
2022/05/07 14:38:22;;;;;;;13.15;10.82;;;24.00;99.90;;;;;;5074994;28;20172;-76
2022/05/07 14:40:50;;;;;;;12.93;10.77;;;23.50;99.90;;;;;;5074923;28;20656;-76
2022/05/07 14:43:16;;;;;;;13.57;11.88;;;23.00;99.90;;;;;;5074896;28;20630;-76
2022/05/07 14:45:41;;;;;;;13.98;11.15;;;22.60;99.90;;;;;;5074693;28;20274;-76
2022/05/07 14:48:07;;;;;;;17.10;13.18;;;22.10;99.90;;;;;;5074680;28;20168;-76
2022/05/07 14:50:33;;;;;;;14.48;12.38;;;21.60;99.90;;;;;;5074707;28;20293;-77
2022/05/07 14:52:59;;;;;;;19.13;13.65;;;21.20;99.90;;;;;;5074699;28;20159;-77
2022/05/07 14:55:25;;;;;;;20.17;12.93;;;21.00;99.90;;;;;;5074649;28;20168;-77
2022/05/07 14:57:51;;;;;;;15.63;12.05;;;20.70;99.90;;;;;;5074535;28;20229;-76
2022/05/07 15:00:17;;;;;;;19.67;12.50;;;20.60;99.90;;;;;;5074524;28;20174;-76
2022/05/07 15:02:46;;;;;;;14.57;12.00;;;20.50;99.90;;;;;;5074361;28;20172;-76
2022/05/07 15:05:14;;;;;;;17.63;13.60;;;20.50;99.90;;;;;;5074324;28;20194;-76
2022/05/07 15:07:40;;;;;;;17.73;12.68;;;20.40;99.90;;;;;;5074403;28;20156;-77
2022/05/07 15:12:53;;;;;;;16.20;12.50;;;20.30;99.90;;;;;;5074286;28;20251;-76
2022/05/07 15:15:20;;;;;;;14.00;12.40;;;20.30;99.90;;;;;;5074187;28;20167;-76
2022/05/07 15:17:46;;;;;;;19.67;13.23;;;20.10;99.90;;;;;;5072951;28;20199;-76
2022/05/07 15:20:15;;;;;;;15.70;12.18;;;20.00;99.90;;;;;;5074127;28;20591;-76
2022/05/07 15:22:44;;;;;;;20.48;13.35;;;19.90;99.90;;;;;;5074133;28;20709;-76
2022/05/07 15:25:12;;;;;;;18.05;13.30;;;19.70;99.90;;;;;;5073913;28;20223;-76
2022/05/07 15:27:37;;;;;;;21.55;13.02;;;19.70;99.90;;;;;;5073973;28;20641;-76
2022/05/07 15:30:03;;;;;;;17.95;13.90;;;19.50;99.90;;;;;;5073899;28;20164;-76
2022/05/07 15:37:57;;;;;;;18.83;13.75;;;19.00;99.90;;;;;;5074153;28;20190;-76
2022/05/07 15:40:23;;;;;;;19.67;13.43;;;18.80;99.90;;;;;;5073845;28;20515;-76
2022/05/07 15:42:49;;;;;;;15.43;13.82;;;18.60;99.90;;;;;;5073926;28;20667;-76
2022/05/07 15:45:15;;;;;;;14.38;12.93;;;18.40;99.90;;;;;;5073741;28;20203;-76
2022/05/07 15:47:41;;;;;;;17.90;14.48;;;18.30;99.90;;;;;;5072658;28;20164;-76
2022/05/07 15:50:07;;;;;;;19.83;14.00;;;18.20;99.90;;;;;;5073989;28;20156;-79
2022/05/07 15:52:34;;;;;;;16.35;13.48;;;18.00;99.90;;;;;;5072530;28;20167;-79
2022/05/07 15:55:00;;;;;;;16.08;12.85;;;17.90;99.90;;;;;;5073748;28;20652;-79
2022/05/07 15:57:26;;;;;;;12.15;9.85;;;17.60;99.90;;;;;;5073736;28;20203;-79
2022/05/07 15:59:52;;;;;;;13.68;9.63;;;17.30;99.90;;;;;;5073328;28;20280;-79
2022/05/07 16:02:18;;;;;;;10.73;9.82;;;17.10;99.90;;;;;;5073148;28;20571;-78
2022/05/07 16:04:43;;;;;;;16.17;10.55;;;16.80;99.90;;;;;;5073252;28;20203;-78
2022/05/07 16:07:09;;;;;;;12.65;11.18;;;16.60;99.90;;;;;;5073193;28;20160;-78
2022/05/07 16:09:35;;;;;;;13.57;11.38;;;16.50;99.90;;;;;;5073137;28;20263;-78
2022/05/07 16:12:01;;;;;;;11.02;9.95;;;16.20;99.90;;;;;;5073235;28;20164;-78
2022/05/07 16:14:26;;;;;;;12.57;11.20;;;16.10;99.90;;;;;;5073255;28;20176;-77
2022/05/07 16:16:52;;;;;;;12.20;10.95;;;16.00;99.90;;;;;;5072183;28;20172;-77
2022/05/07 16:19:18;;;;;;;10.90;9.57;;;16.00;99.90;;;;;;5073194;28;20495;-77
2022/05/07 16:21:44;;;;;;;12.77;9.63;;;15.90;99.90;;;;;;5073151;28;20182;-77
2022/05/07 16:26:54;;;;;;;14.35;10.60;;;15.90;99.90;;;;;;5073200;28;20702;-78
2022/05/07 16:29:19;;;;;;;6.22;5.63;;;15.90;99.90;;;;;;5073156;28;20176;-78
2022/05/07 16:31:45;;;;;;;8.45;6.60;;;15.90;99.90;;;;;;5073092;28;20199;-78
2022/05/07 16:34:10;;;;;;;7.93;7.20;;;15.80;99.90;;;;;;5073026;28;20518;-78
2022/05/07 16:36:36;;;;;;;8.77;7.45;;;15.80;99.90;;;;;;5071710;28;20229;-78
2022/05/07 16:39:02;;;;;;;8.10;7.03;;;15.80;99.90;;;;;;5073002;28;20169;-78
2022/05/07 16:41:28;;;;;;;9.02;8.23;;;15.80;99.90;;;;;;5073009;28;20164;-78
2022/05/07 16:43:53;;;;;;;9.95;8.98;;;15.80;99.90;;;;;;5072959;28;20218;-78
2022/05/07 16:46:19;;;;;;;9.65;8.65;;;15.90;99.90;;;;;;5073832;28;20211;-79
2022/05/07 16:48:48;;;;;;;14.00;10.43;;;15.90;99.90;;;;;;5076961;28;20168;-78
2022/05/07 16:51:14;;;;;;;17.17;12.00;;;15.80;99.90;;;;;;5076936;28;20168;-78
2022/05/07 16:53:40;;;;;;;13.23;12.02;;;15.80;99.90;;;;;;5076937;28;20167;-79
2022/05/07 16:56:06;;;;;;;17.02;13.50;;;15.80;99.90;;;;;;5076840;28;20164;-78
2022/05/07 16:58:33;;;;;;;15.55;13.88;;;15.70;99.90;;;;;;5076825;28;20172;-78
2022/05/07 17:00:59;;;;;;;15.68;13.80;;;15.70;99.90;;;;;;5076616;28;20271;-78
2022/05/07 17:03:27;;;;;;;17.05;14.27;;;15.70;99.90;;;;;;5076757;28;20673;-78
2022/05/07 17:05:55;;;;;;;14.32;12.75;;;15.70;99.90;;;;;;5076486;28;20220;-78
2022/05/07 17:08:23;;;;;;;17.70;13.60;;;15.80;99.90;;;;;;5076580;28;20172;-78
2022/05/07 17:10:50;;;;;;;15.35;13.68;;;15.80;99.90;;;;;;5076447;28;20251;-78
2022/05/07 17:13:16;;;;;;;14.95;12.35;;;15.80;99.90;;;;;;5076519;28;20476;-78
2022/05/07 17:15:42;;;;;;;15.82;12.35;;;16.00;99.90;;;;;;5076424;28;20622;-78
2022/05/07 17:18:08;;;;;;;12.70;11.43;;;16.10;99.90;;;;;;5076398;28;20191;-78
2022/05/07 17:20:35;;;;;;;11.15;10.20;;;16.30;99.90;;;;;;5076299;28;20644;-78
2022/05/07 17:23:01;;;;;;;9.73;8.88;;;16.50;99.90;;;;;;5076309;28;20169;-78
2022/05/07 17:25:32;;;;;;;8.45;7.72;;;16.80;99.90;;;;;;5075992;28;20212;-78
2022/05/07 17:27:58;;;;;;;6.57;6.18;;;16.90;99.90;;;;;;5076261;28;20215;-78
2022/05/07 17:30:25;;;;;;;6.85;6.25;;;17.00;99.90;;;;;;5076185;28;20164;-78
2022/05/07 17:32:52;;;;;;;5.95;5.55;;;16.90;99.90;;;;;;5075096;28;20565;-78
2022/05/07 17:35:18;;;;;;;7.43;6.78;;;16.70;99.90;;;;;;5076129;28;20172;-78
2022/05/07 17:37:44;;;;;;;6.50;6.10;;;16.40;99.90;;;;;;5076054;28;20580;-78
2022/05/07 17:40:10;;;;;;;10.38;6.53;;;16.30;99.90;;;;;;5075962;28;20214;-78
2022/05/07 17:42:36;;;;;;;7.00;6.45;;;16.20;99.90;;;;;;5075877;28;20171;-78
2022/05/07 17:45:02;;;;;;;7.55;6.72;;;16.00;99.90;;;;;;5075795;28;20681;-78
2022/05/07 17:47:27;;;;;;;6.18;5.68;;;15.90;99.90;;;;;;5075821;28;20172;-78
2022/05/07 17:49:53;;;;;;;20.23;12.48;;;15.70;99.90;;;;;;5074575;28;20226;-78
2022/05/07 17:52:20;;;;;;;23.52;16.83;;;15.60;99.90;;;;;;5074567;28;20578;-79
2022/05/07 17:54:45;;;;;;;8.70;7.90;;;15.40;99.90;;;;;;5074370;28;20176;-78
2022/05/07 17:57:11;;;;;;;5.97;5.63;;;15.50;99.90;;;;;;5075184;28;20176;-77
2022/05/07 17:59:38;;;;;;;5.88;5.47;;;15.40;99.90;;;;;;5075529;28;20412;-78
2022/05/07 18:02:05;;;;;;;6.85;6.28;;;15.40;99.90;;;;;;5075463;28;20530;-78
